Time;durP1;ratioP1;P1;durP2;ratioP2;P2;SDS_P1;SDS_P2;PMS_P1;PMS_P2;Temp;Humidity;BMP_temperature;BMP_pressure;BME280_temperature;BME280_humidity;BME280_pressure;Samples;Min_cycle;Max_cycle;Signal;HPM_P1;HPM_P2
2023/03/03 00:00:38;;;;;;;40.90;22.33;;;1.30;99.90;;;;;;5112019;28;20196;-78
2023/03/03 00:03:08;;;;;;;39.90;21.77;;;1.20;99.90;;;;;;5106050;27;20197;-78
2023/03/03 00:05:37;;;;;;;42.57;22.23;;;1.20;99.90;;;;;;5107080;28;20197;-79
2023/03/03 00:08:05;;;;;;;42.00;21.90;;;1.20;99.90;;;;;;5110551;28;21271;-79
2023/03/03 00:10:32;;;;;;;39.00;21.47;;;1.30;99.90;;;;;;5111664;27;20205;-79
2023/03/03 00:12:59;;;;;;;39.87;21.43;;;1.20;99.90;;;;;;5107601;28;20223;-79
2023/03/03 00:15:27;;;;;;;45.67;22.27;;;1.10;99.90;;;;;;5102145;27;20200;-78
2023/03/03 00:17:54;;;;;;;44.90;22.57;;;1.10;99.90;;;;;;5113342;27;20207;-78
2023/03/03 00:20:33;;;;;;;40.87;21.57;;;1.00;99.90;;;;;;5106362;27;20656;-82
2023/03/03 00:23:16;;;;;;;37.23;21.30;;;0.90;99.90;;;;;;5108812;28;20215;-80
2023/03/03 00:25:45;;;;;;;46.53;22.00;;;1.00;99.90;;;;;;5103533;28;20207;-81
2023/03/03 00:28:28;;;;;;;42.03;21.63;;;1.00;99.90;;;;;;5107234;27;20690;-78
2023/03/03 00:30:56;;;;;;;39.93;21.73;;;1.00;99.90;;;;;;5115012;27;20204;-78
2023/03/03 00:33:28;;;;;;;41.37;22.03;;;1.10;99.90;;;;;;5101997;27;20204;-78
2023/03/03 00:35:56;;;;;;;43.13;21.30;;;1.00;99.90;;;;;;5108680;27;20229;-82
2023/03/03 00:38:24;;;;;;;42.17;22.77;;;0.90;99.90;;;;;;5115080;27;20564;-79
2023/03/03 00:40:51;;;;;;;46.37;22.30;;;0.80;99.90;;;;;;5110819;27;20215;-79
2023/03/03 00:43:23;;;;;;;46.20;22.60;;;0.70;99.90;;;;;;5104384;28;20196;-81
2023/03/03 00:45:51;;;;;;;40.77;20.90;;;0.70;99.90;;;;;;5107525;28;20200;-79
2023/03/03 00:48:24;;;;;;;39.87;21.47;;;0.70;99.90;;;;;;5105167;28;20584;-79
2023/03/03 00:50:52;;;;;;;45.40;21.93;;;0.70;99.90;;;;;;5107159;28;20207;-78
2023/03/03 00:53:20;;;;;;;42.77;22.50;;;0.60;99.90;;;;;;5107404;28;20220;-79
2023/03/03 00:55:49;;;;;;;42.47;22.20;;;0.60;99.90;;;;;;5104397;27;20561;-79
2023/03/03 00:58:17;;;;;;;41.83;21.97;;;0.60;99.90;;;;;;5107942;28;20192;-78
2023/03/03 01:00:44;;;;;;;42.77;22.10;;;0.60;99.90;;;;;;5108084;28;20228;-80
2023/03/03 01:03:13;;;;;;;41.83;21.87;;;0.60;99.90;;;;;;5104278;28;20201;-79
2023/03/03 01:05:40;;;;;;;39.30;21.30;;;0.70;99.90;;;;;;5103441;28;20691;-78
2023/03/03 01:08:07;;;;;;;41.43;21.17;;;0.70;99.90;;;;;;5109915;28;20219;-78
2023/03/03 01:10:37;;;;;;;37.43;20.50;;;0.70;99.90;;;;;;5111773;28;20196;-79
2023/03/03 01:13:06;;;;;;;37.77;21.23;;;0.80;99.90;;;;;;5106446;28;20228;-82
2023/03/03 01:15:33;;;;;;;38.70;21.07;;;0.80;99.90;;;;;;5100558;28;20197;-79
2023/03/03 01:18:00;;;;;;;38.50;20.93;;;0.80;99.90;;;;;;5109659;27;20203;-79
2023/03/03 01:20:27;;;;;;;43.63;22.00;;;0.80;99.90;;;;;;5106649;28;20656;-79
2023/03/03 01:22:54;;;;;;;40.80;21.07;;;0.80;99.90;;;;;;5101693;28;20235;-78
2023/03/03 01:25:21;;;;;;;38.13;19.50;;;0.70;99.90;;;;;;5109017;28;20211;-79
2023/03/03 01:27:48;;;;;;;39.87;20.83;;;0.80;99.90;;;;;;5109768;27;20234;-78
2023/03/03 01:30:16;;;;;;;39.40;20.70;;;0.70;99.90;;;;;;5098546;27;20213;-79
2023/03/03 01:32:43;;;;;;;38.27;20.20;;;0.70;99.90;;;;;;5108540;28;20720;-78
2023/03/03 01:35:10;;;;;;;39.23;20.67;;;0.70;99.90;;;;;;5107402;28;20203;-78
2023/03/03 01:37:37;;;;;;;38.93;21.67;;;0.70;99.90;;;;;;5103798;27;20203;-79
2023/03/03 01:40:05;;;;;;;37.80;21.00;;;0.60;99.90;;;;;;5102972;28;20200;-79
2023/03/03 01:42:33;;;;;;;36.90;20.13;;;0.60;99.90;;;;;;5107400;28;20212;-84
2023/03/03 01:45:16;;;;;;;37.33;19.63;;;0.60;99.90;;;;;;5109032;27;20202;-78
2023/03/03 01:47:48;;;;;;;38.83;20.60;;;0.60;99.90;;;;;;5109523;28;20686;-78
2023/03/03 01:50:20;;;;;;;38.37;21.17;;;0.60;99.90;;;;;;5108245;28;20192;-79
2023/03/03 01:52:47;;;;;;;39.97;20.70;;;0.60;99.90;;;;;;5110461;28;20203;-78
2023/03/03 01:55:20;;;;;;;38.67;20.27;;;0.50;99.90;;;;;;5102054;28;20235;-78
2023/03/03 01:57:52;;;;;;;39.77;21.87;;;0.50;99.90;;;;;;5110771;27;20207;-79
2023/03/03 02:00:21;;;;;;;40.27;21.77;;;0.50;99.90;;;;;;5103776;28;20242;-78
2023/03/03 02:02:48;;;;;;;39.97;20.77;;;0.50;99.90;;;;;;5111690;28;20577;-79
2023/03/03 02:05:16;;;;;;;42.53;21.37;;;0.60;99.90;;;;;;5104156;28;20204;-79
2023/03/03 02:07:44;;;;;;;37.80;20.83;;;0.60;99.90;;;;;;5098105;28;20594;-78
2023/03/03 02:10:12;;;;;;;37.87;19.53;;;0.70;99.90;;;;;;5101870;27;20242;-79
2023/03/03 02:12:43;;;;;;;41.40;21.00;;;0.80;99.90;;;;;;5103436;28;20944;-78
2023/03/03 02:15:17;;;;;;;37.97;20.40;;;0.80;99.90;;;;;;5107064;28;20190;-79
2023/03/03 02:17:48;;;;;;;42.53;21.20;;;0.80;99.90;;;;;;5111275;27;20687;-78
2023/03/03 02:20:21;;;;;;;42.13;20.80;;;0.80;99.90;;;;;;5108218;27;20697;-79
2023/03/03 02:22:53;;;;;;;41.27;21.07;;;0.80;99.90;;;;;;5101454;28;20211;-79
2023/03/03 02:25:26;;;;;;;42.37;21.13;;;0.70;99.90;;;;;;5101862;28;20188;-78
2023/03/03 02:27:56;;;;;;;39.47;20.57;;;0.70;99.90;;;;;;5099536;28;20698;-79
2023/03/03 02:30:24;;;;;;;42.10;21.93;;;0.70;99.90;;;;;;5104228;28;20212;-78
2023/03/03 02:32:51;;;;;;;39.83;21.17;;;0.70;99.90;;;;;;5102588;28;20200;-80
2023/03/03 02:35:30;;;;;;;42.47;21.50;;;0.70;99.90;;;;;;5094189;28;20192;-80
2023/03/03 02:38:00;;;;;;;39.33;20.30;;;0.70;99.90;;;;;;5093857;27;20192;-79
2023/03/03 02:40:34;;;;;;;40.67;21.70;;;0.70;99.90;;;;;;5104449;28;20549;-79
2023/03/03 02:43:05;;;;;;;42.77;21.87;;;0.70;99.90;;;;;;5099913;28;20566;-80
2023/03/03 02:45:33;;;;;;;41.17;21.70;;;0.60;99.90;;;;;;5101796;28;20315;-78
2023/03/03 02:47:59;;;;;;;39.47;21.27;;;0.70;99.90;;;;;;5102473;28;20750;-80
2023/03/03 02:50:26;;;;;;;38.33;20.57;;;0.80;99.90;;;;;;5097964;27;20188;-78
2023/03/03 02:52:53;;;;;;;36.40;19.40;;;0.90;99.90;;;;;;5111490;28;20215;-78
2023/03/03 02:55:20;;;;;;;37.53;20.17;;;1.00;99.90;;;;;;5105257;28;20211;-78
2023/03/03 02:57:47;;;;;;;37.50;20.43;;;1.00;99.90;;;;;;5100019;28;20225;-78
2023/03/03 03:00:17;;;;;;;35.90;19.37;;;1.00;99.90;;;;;;5102161;28;20200;-81
2023/03/03 03:02:44;;;;;;;37.13;19.30;;;0.90;99.90;;;;;;5110399;28;20196;-78
2023/03/03 03:05:11;;;;;;;35.60;19.37;;;0.90;99.90;;;;;;5101411;28;20192;-78
2023/03/03 03:07:38;;;;;;;38.30;19.50;;;0.90;99.90;;;;;;5103735;28;20204;-78
2023/03/03 03:10:05;;;;;;;38.10;19.97;;;1.00;99.90;;;;;;5108253;28;20256;-80
2023/03/03 03:12:32;;;;;;;36.47;19.43;;;1.00;99.90;;;;;;5103120;28;20200;-79
2023/03/03 03:14:59;;;;;;;36.87;20.03;;;0.90;99.90;;;;;;5103810;28;20231;-82
2023/03/03 03:17:27;;;;;;;38.80;19.77;;;0.90;99.90;;;;;;5107544;28;20199;-78
2023/03/03 03:19:54;;;;;;;35.63;19.90;;;0.90;99.90;;;;;;5110779;28;20201;-78
2023/03/03 03:22:21;;;;;;;35.57;19.73;;;1.00;99.90;;;;;;5102246;28;20213;-79
2023/03/03 03:24:48;;;;;;;36.30;18.73;;;1.10;99.90;;;;;;5103830;28;20203;-79
2023/03/03 03:27:15;;;;;;;39.27;21.53;;;1.10;99.90;;;;;;5099757;28;20261;-78
2023/03/03 03:29:41;;;;;;;35.00;19.97;;;1.10;99.90;;;;;;5101204;28;20249;-79
2023/03/03 03:32:08;;;;;;;40.63;20.57;;;1.00;99.90;;;;;;5105918;28;20199;-80
2023/03/03 03:34:36;;;;;;;37.80;20.17;;;1.10;99.90;;;;;;5105572;28;20521;-78
2023/03/03 03:37:03;;;;;;;38.17;19.67;;;1.10;99.90;;;;;;5096245;28;20207;-79
2023/03/03 03:39:30;;;;;;;35.47;19.73;;;1.20;99.90;;;;;;5101001;28;20196;-79
2023/03/03 03:41:57;;;;;;;34.93;19.13;;;1.30;99.90;;;;;;5101539;28;20204;-79
2023/03/03 03:44:24;;;;;;;36.30;20.33;;;1.40;99.90;;;;;;5104837;28;20191;-84
2023/03/03 03:46:51;;;;;;;35.87;19.93;;;1.50;99.90;;;;;;5104650;28;20196;-78
2023/03/03 03:49:18;;;;;;;36.27;19.87;;;1.60;99.90;;;;;;5103035;28;20224;-82
2023/03/03 03:51:46;;;;;;;36.27;19.90;;;1.80;99.60;;;;;;5107561;28;20200;-78
2023/03/03 03:54:13;;;;;;;32.60;18.80;;;1.70;99.50;;;;;;5101508;28;20582;-80
2023/03/03 03:56:40;;;;;;;34.60;20.10;;;1.70;99.90;;;;;;5102916;27;20205;-79
2023/03/03 03:59:07;;;;;;;35.23;19.33;;;1.80;99.70;;;;;;5106193;28;20294;-79
2023/03/03 04:01:34;;;;;;;36.80;19.47;;;1.70;99.50;;;;;;5110427;28;20203;-81
2023/03/03 04:04:02;;;;;;;33.63;18.83;;;1.70;99.80;;;;;;5105804;28;20201;-79
2023/03/03 04:06:29;;;;;;;35.20;19.37;;;1.80;99.80;;;;;;5110699;27;20197;-78
2023/03/03 04:08:57;;;;;;;36.23;19.60;;;1.80;99.70;;;;;;5100632;28;20688;-81
2023/03/03 04:11:24;;;;;;;33.87;19.67;;;1.80;99.60;;;;;;5104269;28;20203;-82
2023/03/03 04:13:51;;;;;;;35.70;19.47;;;1.90;99.60;;;;;;5102859;28;20188;-80
2023/03/03 04:16:18;;;;;;;35.80;19.77;;;1.90;99.70;;;;;;5097581;28;20208;-83
2023/03/03 04:18:45;;;;;;;34.20;19.07;;;1.90;99.90;;;;;;5114532;27;20203;-81
2023/03/03 04:21:16;;;;;;;32.93;19.07;;;2.00;99.70;;;;;;5108440;28;20196;-80
2023/03/03 04:23:43;;;;;;;35.93;19.33;;;2.00;99.60;;;;;;5096458;28;20202;-81
2023/03/03 04:26:11;;;;;;;37.07;19.63;;;2.00;99.60;;;;;;5105801;28;20660;-81
2023/03/03 04:28:38;;;;;;;35.20;20.07;;;2.00;99.60;;;;;;5104155;28;20222;-80
2023/03/03 04:31:05;;;;;;;34.60;20.27;;;2.00;99.60;;;;;;5104058;28;20192;-81
2023/03/03 04:33:32;;;;;;;32.93;19.33;;;2.00;99.60;;;;;;5104679;28;20221;-80
2023/03/03 04:35:59;;;;;;;37.00;20.20;;;2.10;99.60;;;;;;5100358;27;20203;-80
2023/03/03 04:38:26;;;;;;;35.27;19.33;;;2.10;99.60;;;;;;5108460;27;20676;-81
2023/03/03 04:40:52;;;;;;;36.13;18.77;;;2.20;99.60;;;;;;5105661;28;20703;-80
2023/03/03 04:43:21;;;;;;;32.03;18.20;;;2.20;99.60;;;;;;5111476;28;20195;-80
2023/03/03 04:45:48;;;;;;;31.03;18.17;;;2.20;99.60;;;;;;5102423;28;20196;-80
2023/03/03 04:48:15;;;;;;;33.27;18.77;;;2.30;99.70;;;;;;5105175;27;20200;-81
2023/03/03 04:50:42;;;;;;;33.83;19.37;;;2.20;99.50;;;;;;5113508;28;20618;-80
2023/03/03 04:53:08;;;;;;;31.23;18.27;;;2.20;99.70;;;;;;5104963;28;20197;-81
2023/03/03 04:55:37;;;;;;;32.17;18.53;;;2.20;99.70;;;;;;5108468;27;20197;-80
2023/03/03 04:58:05;;;;;;;31.60;18.63;;;2.10;99.60;;;;;;5108573;28;20238;-80
2023/03/03 05:00:33;;;;;;;36.03;20.27;;;2.00;99.60;;;;;;5107903;28;20189;-80
2023/03/03 05:03:00;;;;;;;35.33;19.47;;;2.00;99.80;;;;;;5105788;28;20193;-80
2023/03/03 05:05:27;;;;;;;34.83;20.07;;;2.10;99.90;;;;;;5103453;28;20666;-80
2023/03/03 05:07:54;;;;;;;38.80;21.80;;;2.20;99.90;;;;;;5107129;28;20212;-80
2023/03/03 05:10:21;;;;;;;40.27;21.10;;;2.10;99.90;;;;;;5107457;27;20224;-82
2023/03/03 05:12:48;;;;;;;37.17;21.00;;;2.20;99.90;;;;;;5103239;27;20210;-80
2023/03/03 05:15:14;;;;;;;40.80;21.53;;;2.20;99.90;;;;;;5105358;27;20203;-80
2023/03/03 05:17:43;;;;;;;40.30;22.43;;;2.30;99.90;;;;;;5108260;28;20211;-81
2023/03/03 05:20:12;;;;;;;40.63;21.50;;;2.40;99.90;;;;;;5117529;27;20654;-81
2023/03/03 05:22:38;;;;;;;41.47;22.90;;;2.40;99.70;;;;;;5108025;27;20638;-80
2023/03/03 05:25:08;;;;;;;38.30;22.70;;;2.40;99.70;;;;;;5109209;27;20203;-80
2023/03/03 05:27:34;;;;;;;44.20;23.63;;;2.40;99.90;;;;;;5109659;28;20196;-80
2023/03/03 05:30:01;;;;;;;43.87;25.20;;;2.60;99.80;;;;;;5110644;28;20222;-80
2023/03/03 05:32:28;;;;;;;45.03;25.30;;;2.60;99.70;;;;;;5100820;28;20205;-80
2023/03/03 05:34:56;;;;;;;44.63;25.37;;;2.50;99.70;;;;;;5107735;27;20196;-81
2023/03/03 05:37:24;;;;;;;47.77;25.67;;;2.50;99.70;;;;;;5107924;28;20592;-81
2023/03/03 05:39:51;;;;;;;42.37;24.20;;;2.60;99.70;;;;;;5104874;27;20235;-80
2023/03/03 05:42:18;;;;;;;44.43;23.63;;;2.70;99.80;;;;;;5106067;28;20204;-82
2023/03/03 05:44:44;;;;;;;47.17;24.53;;;2.70;99.80;;;;;;5108229;28;20283;-80
2023/03/03 05:47:11;;;;;;;45.83;25.43;;;2.60;99.70;;;;;;5110071;28;20215;-81
2023/03/03 05:49:38;;;;;;;51.70;25.47;;;2.60;99.70;;;;;;5106754;27;20574;-81
2023/03/03 05:52:07;;;;;;;50.37;25.97;;;2.70;99.80;;;;;;5096430;28;20683;-82
2023/03/03 05:54:34;;;;;;;47.00;25.33;;;2.60;99.70;;;;;;5106691;28;20291;-80
2023/03/03 05:57:01;;;;;;;45.83;25.73;;;2.60;99.70;;;;;;5111676;27;20196;-81
2023/03/03 05:59:28;;;;;;;48.87;26.27;;;2.60;99.70;;;;;;5107337;28;20203;-85
2023/03/03 06:01:55;;;;;;;48.07;26.17;;;2.50;99.70;;;;;;5101047;28;20264;-81
2023/03/03 06:04:22;;;;;;;48.23;27.13;;;2.50;99.70;;;;;;5103838;28;20512;-84
2023/03/03 06:06:48;;;;;;;46.87;26.20;;;2.70;99.80;;;;;;5108783;28;20200;-81
2023/03/03 06:09:17;;;;;;;51.33;27.00;;;2.70;99.80;;;;;;5103439;27;21840;-85
2023/03/03 06:11:44;;;;;;;51.27;27.77;;;2.70;99.50;;;;;;5109599;27;20656;-84
2023/03/03 06:14:11;;;;;;;50.90;28.13;;;2.60;99.70;;;;;;5104414;28;20191;-81
2023/03/03 06:16:38;;;;;;;52.87;28.30;;;2.70;99.80;;;;;;5105462;28;20207;-81
2023/03/03 06:19:05;;;;;;;52.13;27.50;;;2.70;99.80;;;;;;5104879;28;20203;-81
2023/03/03 06:21:32;;;;;;;46.90;27.03;;;2.70;99.80;;;;;;5111582;28;20199;-80
2023/03/03 06:23:59;;;;;;;51.17;27.40;;;2.70;99.80;;;;;;5108975;28;20198;-83
2023/03/03 06:26:27;;;;;;;48.67;27.40;;;2.70;99.80;;;;;;5104423;27;20215;-89
2023/03/03 06:28:54;;;;;;;52.23;28.07;;;2.80;99.80;;;;;;5107944;27;20231;-84
2023/03/03 06:31:21;;;;;;;54.57;27.73;;;2.70;99.80;;;;;;5108284;28;20196;-81
2023/03/03 06:33:48;;;;;;;52.50;28.37;;;2.80;99.50;;;;;;5108768;28;20585;-80
2023/03/03 06:36:15;;;;;;;54.17;29.30;;;2.80;99.30;;;;;;5108064;27;20207;-80
2023/03/03 06:38:42;;;;;;;53.87;28.63;;;2.80;99.10;;;;;;5108852;28;20204;-79
2023/03/03 06:41:09;;;;;;;48.10;27.30;;;2.90;99.20;;;;;;5102245;28;20284;-83
2023/03/03 06:43:37;;;;;;;50.03;28.60;;;2.90;99.20;;;;;;5103097;28;20719;-86
2023/03/03 06:46:04;;;;;;;56.00;29.30;;;3.00;98.60;;;;;;5098966;28;20212;-84
2023/03/03 06:48:31;;;;;;;57.40;29.07;;;2.90;98.60;;;;;;5107158;27;20196;-83
2023/03/03 06:51:00;;;;;;;52.90;28.43;;;3.00;98.90;;;;;;5106293;28;20573;-87
2023/03/03 06:53:27;;;;;;;49.07;28.27;;;2.90;98.70;;;;;;5104147;28;20479;-82
2023/03/03 06:55:55;;;;;;;55.97;29.70;;;2.90;98.90;;;;;;5102581;27;20216;-84
2023/03/03 06:58:23;;;;;;;54.37;29.73;;;3.00;99.00;;;;;;5108146;27;20207;-82
2023/03/03 07:00:55;;;;;;;52.60;28.23;;;3.00;98.90;;;;;;5112157;27;20226;-84
2023/03/03 07:03:24;;;;;;;53.53;30.37;;;3.00;98.70;;;;;;5111239;28;20231;-83
2023/03/03 07:05:52;;;;;;;53.03;28.87;;;3.00;98.70;;;;;;5111872;28;20211;-83
2023/03/03 07:08:22;;;;;;;52.23;29.20;;;3.00;98.80;;;;;;5110519;27;20288;-83
2023/03/03 07:10:50;;;;;;;53.90;29.97;;;3.10;98.60;;;;;;5116499;27;20224;-82
2023/03/03 07:13:20;;;;;;;51.53;28.17;;;3.20;98.10;;;;;;5106421;28;20642;-82
2023/03/03 07:15:48;;;;;;;54.53;29.23;;;3.20;98.00;;;;;;5112013;28;20622;-82
2023/03/03 07:18:32;;;;;;;52.33;29.60;;;3.20;98.00;;;;;;5107978;28;20540;-82
2023/03/03 07:20:59;;;;;;;50.13;27.63;;;3.20;98.10;;;;;;5103828;28;20253;-82
2023/03/03 07:23:41;;;;;;;56.57;29.93;;;3.10;98.30;;;;;;5110127;28;20230;-84
2023/03/03 07:26:11;;;;;;;54.50;29.27;;;3.10;98.50;;;;;;5110163;28;20203;-82
2023/03/03 07:28:41;;;;;;;56.00;29.57;;;3.10;98.50;;;;;;5106374;28;20254;-81
2023/03/03 07:31:25;;;;;;;54.30;29.57;;;3.00;98.50;;;;;;5103328;28;20247;-83
2023/03/03 07:33:54;;;;;;;57.67;29.93;;;3.10;98.60;;;;;;5107694;27;20210;-82
2023/03/03 07:36:29;;;;;;;55.30;29.73;;;3.20;98.20;;;;;;5112722;28;20203;-82
2023/03/03 07:39:00;;;;;;;54.67;29.40;;;3.30;98.20;;;;;;5108131;28;20566;-82
2023/03/03 07:41:28;;;;;;;54.13;29.37;;;3.40;97.90;;;;;;5111347;28;20199;-82
2023/03/03 07:44:00;;;;;;;55.40;29.73;;;3.50;97.60;;;;;;5106299;28;20203;-82
2023/03/03 07:46:30;;;;;;;56.17;29.73;;;3.40;97.40;;;;;;5111662;28;20253;-82
2023/03/03 07:49:00;;;;;;;56.13;29.73;;;3.40;97.40;;;;;;5106578;28;20199;-82
2023/03/03 07:51:28;;;;;;;59.40;30.27;;;3.40;97.50;;;;;;5108534;28;20207;-82
2023/03/03 07:54:13;;;;;;;54.23;30.20;;;3.40;97.90;;;;;;5105767;28;20195;-83
2023/03/03 07:56:41;;;;;;;54.80;29.87;;;3.30;97.90;;;;;;5102992;28;20263;-85
2023/03/03 07:59:19;;;;;;;56.00;29.37;;;3.40;98.00;;;;;;5094722;28;20687;-81
2023/03/03 08:01:48;;;;;;;61.30;30.50;;;3.30;98.00;;;;;;5103105;28;20191;-83
2023/03/03 08:04:23;;;;;;;56.80;30.60;;;3.30;98.00;;;;;;5112573;27;20200;-82
2023/03/03 08:06:55;;;;;;;52.70;29.90;;;3.40;98.00;;;;;;5112449;28;20195;-81
2023/03/03 08:09:38;;;;;;;49.23;28.87;;;3.50;97.60;;;;;;5105159;28;20216;-81
2023/03/03 08:12:34;;;;;;;53.07;29.40;;;3.70;97.00;;;;;;5105452;28;20192;-83
2023/03/03 08:15:19;;;;;;;50.97;28.87;;;3.80;96.60;;;;;;5115564;27;20191;-82
2023/03/03 08:17:47;;;;;;;55.00;29.03;;;3.80;96.60;;;;;;5111977;27;20566;-81
2023/03/03 08:20:46;;;;;;;51.93;29.83;;;3.80;96.60;;;;;;5112326;28;20207;-82
2023/03/03 08:23:15;;;;;;;53.47;29.87;;;4.10;96.30;;;;;;5096281;27;20212;-84
2023/03/03 08:25:42;;;;;;;53.67;29.23;;;4.20;95.90;;;;;;5116953;27;20577;-83
2023/03/03 08:28:10;;;;;;;50.70;29.73;;;4.30;95.90;;;;;;5113047;27;20200;-87
2023/03/03 08:30:37;;;;;;;53.57;30.33;;;4.50;95.70;;;;;;5114683;27;20219;-83
2023/03/03 08:33:04;;;;;;;51.97;30.43;;;4.70;95.00;;;;;;5110572;27;20199;-85
2023/03/03 08:35:31;;;;;;;55.33;30.93;;;4.70;94.60;;;;;;5106244;28;20204;-85
2023/03/03 08:37:59;;;;;;;56.60;29.20;;;4.70;95.00;;;;;;5107241;28;20200;-84
2023/03/03 08:40:26;;;;;;;54.97;31.53;;;4.80;95.00;;;;;;5104108;27;20219;-83
2023/03/03 08:42:54;;;;;;;53.63;30.27;;;4.80;95.00;;;;;;5108787;27;20196;-85
2023/03/03 08:45:20;;;;;;;52.57;30.07;;;4.80;95.00;;;;;;5118009;27;20248;-84
2023/03/03 08:47:47;;;;;;;58.97;30.73;;;4.70;95.00;;;;;;5110702;28;20277;-85
2023/03/03 08:50:16;;;;;;;50.57;30.10;;;4.70;95.00;;;;;;5106302;27;20707;-84
2023/03/03 08:52:43;;;;;;;55.73;30.03;;;4.90;95.10;;;;;;5108149;28;20218;-84
2023/03/03 08:55:12;;;;;;;51.77;28.93;;;5.00;95.10;;;;;;5110358;27;20196;-84
2023/03/03 08:57:40;;;;;;;53.60;30.85;;;5.10;94.10;;;;;;5114473;27;20192;-84
2023/03/03 09:00:09;;;;;;;54.27;31.13;;;4.90;93.90;;;;;;5108552;27;20211;-84
2023/03/03 09:02:36;;;;;;;51.57;30.27;;;5.00;94.10;;;;;;5114245;27;20565;-84
2023/03/03 09:05:04;;;;;;;51.37;29.97;;;5.10;94.50;;;;;;5111897;27;20677;-86
2023/03/03 09:07:31;;;;;;;69.88;39.22;;;5.20;93.90;;;;;;5113728;27;20200;-83
2023/03/03 09:09:58;;;;;;;52.85;31.08;;;5.40;94.00;;;;;;5115354;27;20341;-86
2023/03/03 09:12:30;;;;;;;58.72;33.88;;;5.40;92.90;;;;;;5112335;27;20764;-84
2023/03/03 09:15:00;;;;;;;58.17;32.80;;;5.50;93.30;;;;;;5107298;28;20199;-83
2023/03/03 09:17:31;;;;;;;57.65;33.72;;;5.80;92.40;;;;;;5108739;27;20192;-83
2023/03/03 09:20:01;;;;;;;72.30;42.13;;;5.80;91.50;;;;;;5103919;27;20619;-83
2023/03/03 09:22:29;;;;;;;61.55;34.83;;;6.00;91.40;;;;;;5112455;27;20298;-83
2023/03/03 09:24:58;;;;;;;48.33;29.67;;;6.00;89.60;;;;;;5109310;27;20195;-86
2023/03/03 09:27:29;;;;;;;52.78;29.27;;;6.00;91.10;;;;;;5113584;27;20700;-88
2023/03/03 09:30:01;;;;;;;59.10;31.30;;;6.00;91.20;;;;;;5105977;27;20228;-89
2023/03/03 09:32:34;;;;;;;50.13;31.27;;;5.90;91.50;;;;;;5112092;27;20196;-85
2023/03/03 09:35:22;;;;;;;50.47;31.13;;;5.80;91.40;;;;;;5108873;27;20196;-85
2023/03/03 09:37:51;;;;;;;63.72;33.00;;;5.80;91.90;;;;;;5112021;27;20196;-85
2023/03/03 09:40:41;;;;;;;53.10;30.63;;;6.00;91.80;;;;;;5112342;27;20207;-83
2023/03/03 09:43:13;;;;;;;54.70;30.75;;;6.00;91.20;;;;;;5110028;27;20188;-85
2023/03/03 09:45:52;;;;;;;53.60;32.28;;;5.90;91.10;;;;;;5112621;27;20200;-84
2023/03/03 09:48:41;;;;;;;51.90;30.85;;;6.00;91.50;;;;;;5115949;27;20204;-84
2023/03/03 09:51:19;;;;;;;49.70;31.08;;;6.00;91.20;;;;;;5109239;27;20686;-84
2023/03/03 09:54:03;;;;;;;52.50;32.08;;;6.00;91.40;;;;;;5107287;27;20211;-84
2023/03/03 09:56:34;;;;;;;58.22;31.65;;;6.10;92.10;;;;;;5107523;27;20564;-85
2023/03/03 09:59:15;;;;;;;53.10;30.55;;;6.30;91.80;;;;;;5110456;27;20212;-84
2023/03/03 10:02:03;;;;;;;54.42;31.27;;;6.40;90.60;;;;;;5111620;27;20211;-85
2023/03/03 10:05:00;;;;;;;52.45;30.75;;;6.60;90.00;;;;;;5102965;27;20197;-84
2023/03/03 10:07:40;;;;;;;55.35;32.05;;;6.50;89.90;;;;;;5114710;27;20588;-84
2023/03/03 10:10:30;;;;;;;56.72;30.33;;;6.40;90.20;;;;;;5106970;27;20215;-84
2023/03/03 10:13:12;;;;;;;56.20;31.08;;;6.30;90.20;;;;;;5110839;27;20226;-85
2023/03/03 10:15:51;;;;;;;56.63;30.02;;;6.20;90.70;;;;;;5113850;27;20210;-84
2023/03/03 10:18:29;;;;;;;54.90;31.48;;;6.20;90.20;;;;;;5113517;27;20192;-85
2023/03/03 10:21:07;;;;;;;56.42;31.80;;;6.10;90.70;;;;;;5100682;28;20647;-89
2023/03/03 10:23:55;;;;;;;56.65;31.27;;;6.20;90.80;;;;;;5102869;28;20268;-84
2023/03/03 10:26:37;;;;;;;53.75;31.58;;;6.10;91.20;;;;;;5100299;27;20279;-84
2023/03/03 10:29:32;;;;;;;51.28;30.40;;;6.10;90.50;;;;;;5118742;27;20187;-86
2023/03/03 10:32:24;;;;;;;51.88;31.20;;;6.30;90.10;;;;;;5107591;27;20568;-84
2023/03/03 10:35:14;;;;;;;55.22;31.20;;;6.40;90.80;;;;;;5111162;27;20292;-84
2023/03/03 10:37:52;;;;;;;56.58;29.90;;;6.60;90.00;;;;;;5117670;27;20229;-85
2023/03/03 10:40:28;;;;;;;51.50;31.13;;;6.60;90.00;;;;;;5120391;27;20199;-84
2023/03/03 10:43:10;;;;;;;53.90;31.08;;;6.80;90.00;;;;;;5111539;27;20683;-84
2023/03/03 10:45:56;;;;;;;56.17;30.63;;;6.90;86.30;;;;;;5114150;27;20203;-85
2023/03/03 10:48:49;;;;;;;52.47;31.88;;;7.10;86.10;;;;;;5112127;27;20207;-86
2023/03/03 10:51:25;;;;;;;52.08;31.48;;;7.10;86.60;;;;;;5111355;27;20219;-85
2023/03/03 10:54:03;;;;;;;47.80;30.70;;;6.90;85.90;;;;;;5121371;27;20207;-84
2023/03/03 10:56:38;;;;;;;48.90;30.15;;;7.00;86.30;;;;;;5122628;27;20196;-84
2023/03/03 10:59:17;;;;;;;52.85;30.85;;;7.00;84.00;;;;;;5117657;27;20203;-86
2023/03/03 11:01:51;;;;;;;58.85;30.05;;;7.10;85.30;;;;;;5112290;27;20297;-84
2023/03/03 11:04:37;;;;;;;53.08;30.30;;;7.30;84.10;;;;;;5125479;27;20191;-84
2023/03/03 11:07:09;;;;;;;47.97;30.67;;;7.40;83.10;;;;;;5118321;27;20197;-85
2023/03/03 11:09:51;;;;;;;47.50;30.10;;;7.50;82.20;;;;;;5119892;27;20571;-85
2023/03/03 11:12:28;;;;;;;50.72;30.15;;;7.60;79.80;;;;;;5105104;27;20684;-84
2023/03/03 11:15:13;;;;;;;54.88;30.70;;;7.70;79.30;;;;;;5111225;27;20543;-84
2023/03/03 11:17:54;;;;;;;50.72;30.70;;;7.80;76.70;;;;;;5112678;27;20206;-84
2023/03/03 11:20:33;;;;;;;52.03;31.17;;;7.70;80.70;;;;;;5113193;28;20195;-86
2023/03/03 11:23:12;;;;;;;52.20;30.75;;;7.80;77.20;;;;;;5105289;28;20218;-84
2023/03/03 11:25:46;;;;;;;48.20;29.52;;;7.90;72.90;;;;;;5109698;28;20234;-85
2023/03/03 11:28:24;;;;;;;75.47;44.85;;;8.00;80.70;;;;;;5118457;28;20199;-83
2023/03/03 11:31:15;;;;;;;70.88;42.50;;;8.50;77.50;;;;;;5111473;28;20223;-84
2023/03/03 11:33:52;;;;;;;51.88;31.05;;;8.50;73.50;;;;;;5113946;28;20271;-84
2023/03/03 11:36:27;;;;;;;76.43;45.05;;;8.40;73.30;;;;;;5114261;28;20203;-88
2023/03/03 11:38:58;;;;;;;54.95;32.67;;;8.00;85.40;;;;;;5105336;28;20673;-87
2023/03/03 11:41:33;;;;;;;54.28;31.42;;;8.10;76.40;;;;;;5105871;27;20252;-87
2023/03/03 11:44:08;;;;;;;53.70;32.17;;;8.00;78.40;;;;;;5111785;27;20248;-87
2023/03/03 11:46:41;;;;;;;66.72;42.65;;;7.90;79.10;;;;;;5116679;27;20299;-88
2023/03/03 11:49:16;;;;;;;51.45;32.72;;;8.10;85.60;;;;;;5118637;27;20291;-85
2023/03/03 11:51:55;;;;;;;50.38;31.45;;;8.00;75.30;;;;;;5112725;27;20698;-84
2023/03/03 11:54:25;;;;;;;49.00;32.85;;;8.00;75.50;;;;;;5116145;27;20199;-85
2023/03/03 11:56:56;;;;;;;54.72;32.53;;;8.40;73.30;;;;;;5109080;27;20204;-87
2023/03/03 11:59:59;;;;;;;52.50;32.13;;;8.50;73.40;;;;;;5113294;27;20198;-85
2023/03/03 12:02:43;;;;;;;52.63;31.58;;;8.40;73.30;;;;;;5122124;27;20202;-85
2023/03/03 12:05:27;;;;;;;49.83;31.45;;;8.50;73.40;;;;;;5118879;27;20246;-85
2023/03/03 12:08:04;;;;;;;52.03;30.85;;;8.70;67.90;;;;;;5111209;28;20196;-86
2023/03/03 12:10:35;;;;;;;52.05;33.10;;;9.10;62.60;;;;;;5095879;27;20639;-86
2023/03/03 12:13:06;;;;;;;51.92;32.17;;;9.10;62.70;;;;;;5109809;28;20663;-85
2023/03/03 12:15:40;;;;;;;54.40;32.65;;;9.30;59.50;;;;;;5115141;28;20192;-87
2023/03/03 12:18:33;;;;;;;53.58;31.02;;;9.50;57.80;;;;;;5116540;28;20993;-87
2023/03/03 12:24:11;;;;;;;48.83;30.45;;;9.40;56.50;;;;;;5110441;27;20245;-85
2023/03/03 12:29:37;;;;;;;50.88;31.92;;;9.00;57.20;;;;;;5111395;28;20210;-88
2023/03/03 12:32:12;;;;;;;49.67;30.90;;;8.60;64.40;;;;;;5103466;28;20231;-85
2023/03/03 12:34:47;;;;;;;48.80;31.58;;;8.50;65.30;;;;;;5110855;27;20647;-84
2023/03/03 12:37:29;;;;;;;48.15;31.25;;;8.80;65.20;;;;;;5108979;27;20202;-86
2023/03/03 12:40:12;;;;;;;50.38;31.40;;;9.20;69.70;;;;;;5110994;27;20188;-86
2023/03/03 12:45:49;;;;;;;51.28;31.23;;;9.30;61.20;;;;;;5109810;27;20216;-86
2023/03/03 12:48:19;;;;;;;49.70;31.45;;;9.20;58.40;;;;;;5102094;27;20199;-89
2023/03/03 12:53:58;;;;;;;50.13;31.88;;;8.90;64.80;;;;;;5124846;27;20246;-86
2023/03/03 12:56:32;;;;;;;52.05;31.58;;;8.90;64.60;;;;;;5118052;27;20198;-86
2023/03/03 12:59:10;;;;;;;52.38;31.73;;;8.80;62.00;;;;;;5124984;27;20211;-86
2023/03/03 13:02:27;;;;;;;50.78;32.38;;;8.60;73.50;;;;;;5108136;28;20601;-85
2023/03/03 13:05:01;;;;;;;62.03;39.92;;;9.00;61.00;;;;;;5103680;28;20229;-85
2023/03/03 13:07:37;;;;;;;55.42;33.72;;;9.30;62.70;;;;;;5104695;27;20200;-84
2023/03/03 13:10:14;;;;;;;55.55;33.83;;;9.30;57.40;;;;;;5098366;28;20200;-86